Time;durP1;ratioP1;P1;durP2;ratioP2;P2;SDS_P1;SDS_P2;PMS_P1;PMS_P2;Temp;Humidity;BMP_temperature;BMP_pressure;BME280_temperature;BME280_humidity;BME280_pressure;Samples;Min_cycle;Max_cycle;Signal;HPM_P1;HPM_P2
2023/08/19 00:00:00;;;;;;;17.38;12.55;;;;;;;;;;4912739;29;20076;-87
2023/08/19 00:02:40;;;;;;;17.60;12.43;;;;;;;;;;4914355;29;20075;-86
2023/08/19 00:05:12;;;;;;;13.60;10.98;;;;;;;;;;4913833;29;20068;-87
2023/08/19 00:07:44;;;;;;;19.20;12.43;;;;;;;;;;4915519;29;20052;-88
2023/08/19 00:10:16;;;;;;;18.50;13.15;;;;;;;;;;4917012;29;20055;-88
2023/08/19 00:12:57;;;;;;;16.17;12.05;;;;;;;;;;4917442;29;20082;-87
2023/08/19 00:15:41;;;;;;;17.20;12.48;;;;;;;;;;4915999;29;20048;-87
2023/08/19 00:18:43;;;;;;;17.85;11.77;;;;;;;;;;4915910;29;20156;-87
2023/08/19 00:21:38;;;;;;;16.98;12.02;;;;;;;;;;4920012;29;20056;-88
2023/08/19 00:24:15;;;;;;;13.10;11.35;;;;;;;;;;4917294;29;20116;-88
2023/08/19 00:26:47;;;;;;;21.23;12.10;;;;;;;;;;4917408;29;20072;-90
2023/08/19 00:29:58;;;;;;;14.20;11.75;;;;;;;;;;4919475;29;20060;-91
2023/08/19 00:32:30;;;;;;;16.63;12.23;;;;;;;;;;4916450;29;20112;-88
2023/08/19 00:35:12;;;;;;;15.73;12.18;;;;;;;;;;4917830;29;20400;-88
2023/08/19 00:37:48;;;;;;;19.33;11.15;;;;;;;;;;4931981;29;20116;-87
2023/08/19 00:40:27;;;;;;;14.68;11.43;;;;;;;;;;4916813;29;20108;-86
2023/08/19 00:43:09;;;;;;;15.35;11.95;;;;;;;;;;4918233;29;20048;-86
2023/08/19 00:45:46;;;;;;;15.23;11.57;;;;;;;;;;4915282;29;20139;-87
2023/08/19 00:48:25;;;;;;;14.82;11.63;;;;;;;;;;4916995;29;20120;-87
2023/08/19 00:50:58;;;;;;;17.70;11.80;;;;;;;;;;4914301;29;20056;-87
2023/08/19 00:53:39;;;;;;;16.42;13.02;;;;;;;;;;4913896;29;20470;-88
2023/08/19 00:56:11;;;;;;;16.75;12.88;;;;;;;;;;4913201;29;20122;-88
2023/08/19 00:58:48;;;;;;;16.83;12.65;;;;;;;;;;4914096;29;20190;-88
2023/08/19 01:01:23;;;;;;;16.65;12.65;;;;;;;;;;4913990;29;20098;-88
2023/08/19 01:03:55;;;;;;;15.98;12.68;;;;;;;;;;4914783;29;20073;-88
2023/08/19 01:06:35;;;;;;;15.85;12.70;;;;;;;;;;4913439;29;20087;-88
2023/08/19 01:09:20;;;;;;;16.73;13.52;;;;;;;;;;4913733;29;20185;-88
2023/08/19 01:11:48;;;;;;;15.60;11.57;;;;;;;;;;4912763;29;20083;-88
2023/08/19 01:14:36;;;;;;;17.58;12.90;;;;;;;;;;4910993;29;20048;-88
2023/08/19 01:17:26;;;;;;;17.77;13.18;;;;;;;;;;4910869;29;20159;-88
2023/08/19 01:20:08;;;;;;;19.05;13.32;;;;;;;;;;4910049;29;20052;-88
2023/08/19 01:23:14;;;;;;;17.40;13.07;;;;;;;;;;5159670;27;20990;-88
2023/08/19 01:25:56;;;;;;;19.95;13.88;;;;;;;;;;5142529;27;20073;-88
2023/08/19 01:28:26;;;;;;;19.65;13.70;;;;;;;;;;5142174;27;20057;-88
2023/08/19 01:31:06;;;;;;;21.40;14.88;;;;;;;;;;5141058;27;20051;-87
2023/08/19 01:33:42;;;;;;;18.45;13.52;;;;;;;;;;5140847;27;20130;-87
2023/08/19 01:36:29;;;;;;;19.70;15.35;;;;;;;;;;5154674;27;20080;-91
2023/08/19 01:39:04;;;;;;;20.48;14.43;;;;;;;;;;5154869;27;20090;-90
2023/08/19 01:41:35;;;;;;;19.17;13.90;;;;;;;;;;5150318;27;20058;-91
2023/08/19 01:44:11;;;;;;;20.55;15.10;;;;;;;;;;5144809;27;20039;-89
2023/08/19 01:46:44;;;;;;;23.08;14.70;;;;;;;;;;5143297;27;20422;-89
2023/08/19 01:49:29;;;;;;;18.58;14.63;;;;;;;;;;5164508;27;20050;-90
2023/08/19 01:52:07;;;;;;;20.80;14.70;;;;;;;;;;5162976;27;20047;-90
2023/08/19 01:54:37;;;;;;;16.30;13.60;;;;;;;;;;5162270;27;20477;-90
2023/08/19 01:57:27;;;;;;;18.92;14.95;;;;;;;;;;5166444;27;20035;-90
2023/08/19 02:00:01;;;;;;;19.15;15.43;;;;;;;;;;5162300;27;20168;-91
2023/08/19 02:02:31;;;;;;;18.50;14.73;;;;;;;;;;5161650;27;20106;-90
2023/08/19 02:05:00;;;;;;;19.35;14.35;;;;;;;;;;5162435;27;20055;-90
2023/08/19 02:07:28;;;;;;;21.30;15.32;;;;;;;;;;5143780;27;20491;-90
2023/08/19 02:10:03;;;;;;;19.90;15.35;;;;;;;;;;5145189;27;20368;-90
2023/08/19 02:12:32;;;;;;;21.40;16.05;;;;;;;;;;5160587;27;20168;-91
2023/08/19 02:15:04;;;;;;;20.52;15.75;;;;;;;;;;5143833;27;20168;-91
2023/08/19 02:17:41;;;;;;;20.58;16.77;;;;;;;;;;5143997;27;20434;-91
2023/08/19 02:20:09;;;;;;;23.67;15.50;;;;;;;;;;5142978;27;20058;-91
2023/08/19 02:22:40;;;;;;;23.77;16.23;;;;;;;;;;5137800;27;20058;-91
2023/08/19 02:25:15;;;;;;;25.30;16.00;;;;;;;;;;5139589;27;20215;-90
2023/08/19 02:27:50;;;;;;;21.70;16.42;;;;;;;;;;5139391;27;20031;-90
2023/08/19 02:30:22;;;;;;;23.52;17.75;;;;;;;;;;5139358;27;20035;-90
2023/08/19 02:32:52;;;;;;;21.80;16.70;;;;;;;;;;5134889;27;20091;-90
2023/08/19 02:35:26;;;;;;;23.17;16.02;;;;;;;;;;5126704;28;20039;-89
2023/08/19 02:37:57;;;;;;;21.00;16.52;;;;;;;;;;5126509;28;20107;-89
2023/08/19 02:40:31;;;;;;;21.42;16.88;;;;;;;;;;5127968;28;20070;-89
2023/08/19 02:42:59;;;;;;;22.25;17.33;;;;;;;;;;5125430;28;20055;-89
2023/08/19 02:45:35;;;;;;;23.25;17.13;;;;;;;;;;5126718;27;20342;-89
2023/08/19 02:48:08;;;;;;;22.52;17.05;;;;;;;;;;5126558;28;20162;-90
2023/08/19 02:54:07;;;;;;;22.27;17.17;;;;;;;;;;5129793;28;20130;-90
2023/08/19 02:56:35;;;;;;;25.75;17.67;;;;;;;;;;5130952;28;20212;-90
2023/08/19 02:59:06;;;;;;;25.13;18.35;;;;;;;;;;5132005;28;20055;-90
2023/08/19 03:01:38;;;;;;;24.73;18.42;;;;;;;;;;5131274;28;20039;-90
2023/08/19 03:04:07;;;;;;;26.20;17.73;;;;;;;;;;5131421;28;20035;-90
2023/08/19 03:06:35;;;;;;;26.23;18.88;;;;;;;;;;5133284;28;20051;-90
2023/08/19 03:09:02;;;;;;;24.77;20.35;;;;;;;;;;5134227;28;20047;-91
2023/08/19 03:11:36;;;;;;;26.63;19.83;;;;;;;;;;5131526;28;20051;-90
2023/08/19 03:14:15;;;;;;;28.02;18.77;;;;;;;;;;5129835;28;20052;-90
2023/08/19 03:16:43;;;;;;;25.63;19.55;;;;;;;;;;5129392;27;20071;-90
2023/08/19 03:19:16;;;;;;;27.65;19.52;;;;;;;;;;5127779;28;20103;-90
2023/08/19 03:21:44;;;;;;;26.23;18.05;;;;;;;;;;5136626;27;20071;-91
2023/08/19 03:24:17;;;;;;;30.20;20.40;;;;;;;;;;5148365;27;20066;-90
2023/08/19 03:26:46;;;;;;;29.20;20.63;;;;;;;;;;5149609;27;20055;-90
2023/08/19 03:29:26;;;;;;;28.55;21.20;;;;;;;;;;5148077;27;20051;-88
2023/08/19 03:31:57;;;;;;;31.63;19.73;;;;;;;;;;5128322;27;20074;-88
2023/08/19 03:34:26;;;;;;;29.90;21.20;;;;;;;;;;5129283;27;20047;-87
2023/08/19 03:37:02;;;;;;;33.17;20.70;;;;;;;;;;5129991;27;20039;-86
2023/08/19 03:39:34;;;;;;;27.15;20.42;;;;;;;;;;5130453;27;20062;-88
2023/08/19 03:42:06;;;;;;;30.50;22.45;;;;;;;;;;5130122;27;20063;-87
2023/08/19 03:44:42;;;;;;;26.67;20.77;;;;;;;;;;5129428;27;20047;-88
2023/08/19 03:47:14;;;;;;;30.90;21.67;;;;;;;;;;5130345;27;20070;-88
2023/08/19 03:50:00;;;;;;;27.23;20.88;;;;;;;;;;5131049;27;20076;-87
2023/08/19 03:52:31;;;;;;;26.77;21.73;;;;;;;;;;5128105;27;20082;-88
2023/08/19 03:55:02;;;;;;;29.25;21.02;;;;;;;;;;5150084;27;20057;-88
2023/08/19 03:57:55;;;;;;;30.52;21.05;;;;;;;;;;5143009;27;20039;-88
2023/08/19 04:01:00;;;;;;;27.73;20.90;;;;;;;;;;5135533;27;20091;-88
2023/08/19 04:03:44;;;;;;;29.40;20.88;;;;;;;;;;5122660;27;20043;-87
2023/08/19 04:06:29;;;;;;;32.20;21.98;;;;;;;;;;5130469;27;20426;-87
2023/08/19 04:09:04;;;;;;;33.10;22.20;;;;;;;;;;5127723;27;20064;-87
2023/08/19 04:11:55;;;;;;;35.00;21.27;;;;;;;;;;5130136;27;20050;-88
2023/08/19 04:14:31;;;;;;;30.67;22.10;;;;;;;;;;5144453;27;20145;-88
2023/08/19 04:17:01;;;;;;;33.33;22.02;;;;;;;;;;5126178;27;20058;-87
2023/08/19 04:19:33;;;;;;;33.40;21.52;;;;;;;;;;5143692;27;20031;-88
2023/08/19 04:22:03;;;;;;;32.50;21.70;;;;;;;;;;5121470;28;20077;-88
2023/08/19 04:24:50;;;;;;;36.00;22.90;;;;;;;;;;5122693;28;20047;-87
2023/08/19 04:27:47;;;;;;;;;;;;;;;;;;;;;
2023/08/19 04:30:23;;;;;;;34.03;22.83;;;;;;;;;;5129940;28;20052;-87
2023/08/19 04:33:03;;;;;;;30.73;22.65;;;;;;;;;;5127013;28;20063;-87
2023/08/19 04:35:42;;;;;;;29.92;21.98;;;;;;;;;;5120749;28;20051;-86
2023/08/19 04:38:22;;;;;;;31.88;22.63;;;;;;;;;;5121498;28;20393;-87
2023/08/19 04:41:09;;;;;;;33.22;22.40;;;;;;;;;;5118921;28;20055;-87
2023/08/19 04:47:00;;;;;;;33.80;22.95;;;;;;;;;;5121797;28;20426;-88
2023/08/19 04:49:33;;;;;;;36.72;22.55;;;;;;;;;;5120371;28;20058;-87
2023/08/19 04:52:02;;;;;;;35.00;23.77;;;;;;;;;;5120763;28;20116;-88
2023/08/19 04:54:40;;;;;;;32.42;21.95;;;;;;;;;;5122141;28;20051;-88
2023/08/19 04:57:18;;;;;;;31.00;22.73;;;;;;;;;;5121691;28;20043;-88
2023/08/19 04:59:48;;;;;;;30.75;22.75;;;;;;;;;;5121349;28;20078;-87
2023/08/19 05:02:16;;;;;;;31.15;20.90;;;;;;;;;;5122086;27;20059;-87
2023/08/19 05:04:45;;;;;;;29.75;21.40;;;;;;;;;;5121397;28;20075;-88
2023/08/19 05:07:22;;;;;;;33.50;23.15;;;;;;;;;;5122004;28;20069;-88
2023/08/19 05:10:04;;;;;;;31.80;21.95;;;;;;;;;;5078679;28;20047;-88
2023/08/19 05:12:46;;;;;;;31.17;22.52;;;;;;;;;;5124580;28;20054;-87
2023/08/19 05:15:21;;;;;;;28.85;20.38;;;;;;;;;;5122021;28;20047;-90
2023/08/19 05:17:57;;;;;;;28.83;21.17;;;;;;;;;;5137043;28;20934;-90
2023/08/19 05:24:00;;;;;;;23.85;19.42;;;;;;;;;;4966470;23;20455;-89
2023/08/19 05:29:55;;;;;;;24.17;19.23;;;;;;;;;;4967776;28;20067;-89
2023/08/19 05:32:31;;;;;;;26.25;19.40;;;;;;;;;;4967181;29;20082;-90
2023/08/19 05:35:00;;;;;;;28.77;19.35;;;;;;;;;;4968911;29;20067;-90
2023/08/19 05:37:34;;;;;;;23.15;17.42;;;;;;;;;;4968808;29;20252;-89
2023/08/19 05:40:06;;;;;;;25.23;18.48;;;;;;;;;;4968604;28;20074;-90
2023/08/19 05:42:34;;;;;;;23.95;18.33;;;;;;;;;;4968804;28;20046;-90
2023/08/19 05:45:02;;;;;;;24.45;17.40;;;;;;;;;;4967617;28;20044;-90
2023/08/19 05:47:40;;;;;;;23.02;18.17;;;;;;;;;;4966717;28;20051;-89
2023/08/19 05:50:09;;;;;;;24.10;17.08;;;;;;;;;;4964975;29;20051;-90
2023/08/19 05:52:43;;;;;;;25.55;16.58;;;;;;;;;;4962701;29;20090;-90
2023/08/19 05:55:18;;;;;;;24.10;16.23;;;;;;;;;;4965613;28;20061;-90
2023/08/19 05:57:45;;;;;;;25.52;16.15;;;;;;;;;;4968215;28;20082;-90
2023/08/19 06:00:16;;;;;;;22.98;16.38;;;;;;;;;;4964592;29;20070;-87
2023/08/19 06:02:54;;;;;;;24.35;17.63;;;;;;;;;;4962188;29;20121;-86
2023/08/19 06:05:27;;;;;;;24.67;17.02;;;;;;;;;;4963727;29;20047;-87
2023/08/19 06:08:07;;;;;;;24.17;16.48;;;;;;;;;;4965067;28;20079;-87
2023/08/19 06:10:43;;;;;;;27.23;17.13;;;;;;;;;;4969432;29;20058;-87
2023/08/19 06:13:13;;;;;;;22.80;15.68;;;;;;;;;;4967658;29;20051;-87
2023/08/19 06:16:02;;;;;;;22.05;15.70;;;;;;;;;;4968747;29;20063;-87
2023/08/19 06:18:52;;;;;;;22.17;16.40;;;;;;;;;;4967862;29;20047;-86
2023/08/19 06:21:32;;;;;;;24.60;16.50;;;;;;;;;;4967416;29;20235;-87
2023/08/19 06:24:04;;;;;;;23.58;16.05;;;;;;;;;;4968009;29;20052;-86
2023/08/19 06:26:48;;;;;;;21.77;15.73;;;;;;;;;;4966915;28;20075;-87
2023/08/19 06:29:36;;;;;;;23.85;16.58;;;;;;;;;;4967456;28;20063;-86
2023/08/19 06:32:09;;;;;;;25.02;17.30;;;;;;;;;;4967487;28;20074;-87
2023/08/19 06:35:00;;;;;;;23.45;16.63;;;;;;;;;;4970592;28;20075;-87
2023/08/19 06:37:47;;;;;;;20.15;16.30;;;;;;;;;;4964968;29;20066;-87
2023/08/19 06:40:39;;;;;;;23.50;16.23;;;;;;;;;;4959892;29;20420;-88
2023/08/19 06:43:21;;;;;;;20.20;15.57;;;;;;;;;;4963981;29;20232;-88
2023/08/19 06:45:54;;;;;;;22.80;16.15;;;;;;;;;;4965137;29;20075;-90
2023/08/19 06:48:47;;;;;;;20.27;15.25;;;;;;;;;;4963194;28;20051;-90
2023/08/19 06:51:16;;;;;;;21.88;15.50;;;;;;;;;;4965778;29;20047;-90
2023/08/19 06:53:44;;;;;;;22.33;16.70;;;;;;;;;;4964104;29;20085;-91
2023/08/19 06:56:49;;;;;;;22.77;14.75;;;;;;;;;;4969709;28;20055;-89
2023/08/19 06:59:27;;;;;;;28.50;15.75;;;;;;;;;;4963196;29;20111;-90
2023/08/19 07:02:02;;;;;;;20.48;14.93;;;;;;;;;;4970046;28;20103;-90
2023/08/19 07:04:35;;;;;;;21.00;16.60;;;;;;;;;;4966417;28;20054;-90
2023/08/19 07:07:21;;;;;;;23.42;14.95;;;;;;;;;;4964851;29;20059;-90
2023/08/19 07:09:52;;;;;;;24.23;15.43;;;;;;;;;;4963486;28;20543;-90
2023/08/19 07:12:27;;;;;;;23.70;15.00;;;;;;;;;;4965129;28;20051;-90
2023/08/19 07:15:00;;;;;;;21.05;14.10;;;;;;;;;;4964670;28;20507;-89
2023/08/19 07:17:30;;;;;;;21.58;14.32;;;;;;;;;;4963182;29;20331;-90
2023/08/19 07:20:09;;;;;;;22.10;14.88;;;;;;;;;;4965277;28;20111;-90
2023/08/19 07:22:47;;;;;;;19.95;14.77;;;;;;;;;;4964094;28;20055;-90
2023/08/19 07:25:27;;;;;;;18.98;14.68;;;;;;;;;;4962905;29;20196;-88
2023/08/19 07:28:05;;;;;;;19.63;14.57;;;;;;;;;;4962946;28;20674;-88
2023/08/19 07:30:46;;;;;;;17.38;14.00;;;;;;;;;;4938634;28;20059;-86
2023/08/19 07:33:38;;;;;;;18.55;13.45;;;;;;;;;;4961261;29;20204;-87
2023/08/19 07:36:59;;;;;;;16.48;13.00;;;;;;;;;;4958666;29;20311;-88
2023/08/19 07:39:38;;;;;;;19.58;13.80;;;;;;;;;;4960194;29;20035;-88
2023/08/19 07:42:22;;;;;;;19.08;13.38;;;;;;;;;;4944444;29;20051;-86
2023/08/19 07:44:55;;;;;;;20.60;14.00;;;;;;;;;;4956120;29;20047;-88
2023/08/19 07:47:31;;;;;;;20.70;13.52;;;;;;;;;;4958443;29;20047;-86
2023/08/19 07:50:34;;;;;;;16.42;12.35;;;;;;;;;;4957503;29;20055;-87
2023/08/19 07:53:16;;;;;;;17.38;13.10;;;;;;;;;;4958368;28;20166;-88
2023/08/19 07:55:59;;;;;;;17.42;11.82;;;;;;;;;;4949096;28;20069;-88
2023/08/19 07:58:33;;;;;;;15.93;11.68;;;;;;;;;;4959678;29;20051;-88
2023/08/19 08:01:05;;;;;;;15.15;12.30;;;;;;;;;;4960445;29;20055;-87
2023/08/19 08:03:39;;;;;;;14.73;12.63;;;;;;;;;;4960601;28;20110;-87
2023/08/19 08:06:12;;;;;;;14.68;10.90;;;;;;;;;;4960766;29;20167;-87
2023/08/19 08:08:44;;;;;;;17.98;12.30;;;;;;;;;;4961789;28;20102;-88
2023/08/19 08:11:25;;;;;;;17.02;11.00;;;;;;;;;;4947419;29;20047;-89
2023/08/19 08:13:57;;;;;;;16.50;11.43;;;;;;;;;;4964722;29;20299;-86
2023/08/19 08:16:46;;;;;;;17.75;12.52;;;;;;;;;;4966131;28;20071;-86
2023/08/19 08:19:28;;;;;;;15.90;11.00;;;;;;;;;;4967689;28;20051;-87
2023/08/19 08:21:59;;;;;;;19.77;11.43;;;;;;;;;;4963688;28;20062;-86
2023/08/19 08:24:38;;;;;;;13.43;11.57;;;;;;;;;;4965008;29;20055;-87
2023/08/19 08:27:16;;;;;;;14.05;11.45;;;;;;;;;;4964845;29;20054;-87
2023/08/19 08:29:57;;;;;;;;;;;;;;;;;;;;;
2023/08/19 08:32:43;;;;;;;16.55;10.30;;;;;;;;;;4959636;28;20106;-86
2023/08/19 08:35:15;;;;;;;14.00;10.55;;;;;;;;;;4946363;29;20059;-87
2023/08/19 08:37:52;;;;;;;13.75;10.68;;;;;;;;;;4962553;29;20047;-87
2023/08/19 08:40:29;;;;;;;11.95;9.55;;;;;;;;;;4970644;28;20138;-88
2023/08/19 08:43:08;;;;;;;16.88;10.00;;;;;;;;;;4965237;29;20083;-88
2023/08/19 08:45:40;;;;;;;13.20;9.35;;;;;;;;;;4964576;28;20067;-87
2023/08/19 08:48:22;;;;;;;14.13;9.82;;;;;;;;;;4954011;29;20065;-87
2023/08/19 08:51:13;;;;;;;13.30;9.98;;;;;;;;;;4963094;29;20102;-86
2023/08/19 08:53:59;;;;;;;12.05;10.25;;;;;;;;;;4955588;29;20081;-87
2023/08/19 08:56:51;;;;;;;14.00;10.23;;;;;;;;;;4964876;29;20075;-87
2023/08/19 08:59:24;;;;;;;12.90;9.55;;;;;;;;;;4965207;28;20102;-87
2023/08/19 09:02:00;;;;;;;12.32;8.90;;;;;;;;;;4962963;29;20066;-87
2023/08/19 09:04:40;;;;;;;14.40;9.82;;;;;;;;;;4963495;29;20061;-87
2023/08/19 09:07:37;;;;;;;11.75;9.35;;;;;;;;;;4964633;29;20051;-88
2023/08/19 09:10:22;;;;;;;12.13;9.60;;;;;;;;;;4946000;29;20103;-88
2023/08/19 09:13:04;;;;;;;12.20;9.65;;;;;;;;;;4958194;29;20062;-87
2023/08/19 09:15:49;;;;;;;13.82;10.55;;;;;;;;;;4957024;29;20431;-89
2023/08/19 09:18:30;;;;;;;14.63;11.02;;;;;;;;;;4959166;29;20055;-89
2023/08/19 09:21:03;;;;;;;14.13;10.50;;;;;;;;;;4958823;29;20055;-89
2023/08/19 09:23:48;;;;;;;13.38;9.57;;;;;;;;;;4957530;29;20052;-89
2023/08/19 09:26:36;;;;;;;15.63;10.48;;;;;;;;;;4957251;29;20047;-88
2023/08/19 09:29:28;;;;;;;13.27;8.68;;;;;;;;;;4956615;29;20322;-89
2023/08/19 09:32:11;;;;;;;16.35;10.20;;;;;;;;;;4958387;29;20142;-87
2023/08/19 09:35:51;;;;;;;12.18;9.70;;;;;;;;;;4960352;29;20320;-89
2023/08/19 09:41:57;;;;;;;11.05;9.27;;;;;;;;;;4957674;29;20384;-87
2023/08/19 09:44:45;;;;;;;17.70;9.90;;;;;;;;;;4954265;29;20051;-88
2023/08/19 09:47:56;;;;;;;13.05;9.23;;;;;;;;;;4958374;29;20319;-87
2023/08/19 09:50:27;;;;;;;13.60;9.43;;;;;;;;;;4955833;29;20447;-89
2023/08/19 09:53:14;;;;;;;13.20;9.25;;;;;;;;;;4955767;28;20470;-88
2023/08/19 09:55:57;;;;;;;11.68;9.20;;;;;;;;;;4959226;29;20039;-88
2023/08/19 09:58:35;;;;;;;15.27;8.65;;;;;;;;;;4957855;29;20260;-88
2023/08/19 10:01:16;;;;;;;11.95;9.30;;;;;;;;;;4954034;28;20047;-88
2023/08/19 10:03:58;;;;;;;11.65;9.23;;;;;;;;;;4961537;29;20047;-88
2023/08/19 10:06:42;;;;;;;17.73;9.77;;;;;;;;;;4958039;29;20096;-88
2023/08/19 10:09:26;;;;;;;10.95;8.65;;;;;;;;;;4951877;29;20047;-88
2023/08/19 10:12:29;;;;;;;12.77;8.95;;;;;;;;;;4961898;29;20039;-88
2023/08/19 11:03:56;;;;;;;9.13;7.78;;;;;;;;;;4957975;29;20087;-87
2023/08/19 11:06:38;;;;;;;11.65;7.90;;;;;;;;;;4966963;29;20075;-87
2023/08/19 11:09:48;;;;;;;;;;;;;;;;;;;;;
2023/08/19 11:12:36;;;;;;;11.98;8.55;;;;;;;;;;4930854;29;20043;-87
2023/08/19 11:15:10;;;;;;;14.73;7.97;;;;;;;;;;4972892;29;20051;-86
2023/08/19 11:17:54;;;;;;;;;;;;;;;;;;4967340;29;20062;-88
2023/08/19 11:20:39;;;;;;;14.88;8.25;;;;;;;;;;4969848;28;19957;-88
2023/08/19 11:49:25;;;;;;;10.60;7.22;;;;;;;;;;4966869;29;20054;-87
2023/08/19 11:51:58;;;;;;;11.50;7.22;;;;;;;;;;4970066;29;20058;-87
2023/08/19 12:04:42;;;;;;;11.57;7.15;;;;;;;;;;4966602;29;20133;-90
2023/08/19 12:07:22;;;;;;;13.07;7.28;;;;;;;;;;4966945;29;20138;-90
2023/08/19 12:09:57;;;;;;;9.73;7.40;;;;;;;;;;4949818;29;20051;-90
2023/08/19 12:12:30;;;;;;;11.07;7.53;;;;;;;;;;4948818;28;20742;-89
2023/08/19 12:18:32;;;;;;;14.43;7.75;;;;;;;;;;4964491;29;20091;-89
2023/08/19 12:27:55;;;;;;;12.05;7.63;;;;;;;;;;4965497;29;20034;-89
2023/08/19 12:30:36;;;;;;;8.80;6.25;;;;;;;;;;4946605;29;20051;-90
2023/08/19 12:33:15;;;;;;;13.00;7.30;;;;;;;;;;4944259;28;20059;-90
2023/08/19 12:35:58;;;;;;;9.48;6.40;;;;;;;;;;4962317;28;20105;-90
2023/08/19 12:39:24;;;;;;;11.45;6.88;;;;;;;;;;4939419;29;20066;-89
2023/08/19 12:41:53;;;;;;;13.57;7.20;;;;;;;;;;4923174;29;20066;-90
2023/08/19 12:47:45;;;;;;;8.23;6.20;;;;;;;;;;4940001;28;20153;-90
2023/08/19 12:50:27;;;;;;;8.52;6.20;;;;;;;;;;4927509;29;20441;-91
2023/08/19 12:56:29;;;;;;;12.32;6.80;;;;;;;;;;4946475;29;20078;-91
2023/08/19 12:59:10;;;;;;;10.93;6.65;;;;;;;;;;4962447;28;20047;-91
2023/08/19 13:02:02;;;;;;;9.35;6.10;;;;;;;;;;4927912;29;20131;-91
2023/08/19 13:04:44;;;;;;;10.77;6.75;;;;;;;;;;4909245;29;20089;-90
2023/08/19 13:07:17;;;;;;;10.35;6.72;;;;;;;;;;4923770;29;20078;-90
2023/08/19 13:09:59;;;;;;;15.73;7.10;;;;;;;;;;4921731;29;20138;-91
2023/08/19 13:23:09;;;;;;;12.73;6.90;;;;;;;;;;4929991;29;20042;-87
2023/08/19 13:25:47;;;;;;;11.20;7.30;;;;;;;;;;4908288;29;20084;-87
2023/08/19 13:28:46;;;;;;;10.65;7.20;;;;;;;;;;4922074;29;20040;-88
2023/08/19 13:31:37;;;;;;;10.85;7.47;;;;;;;;;;4908003;29;20245;-88
2023/08/19 13:34:19;;;;;;;12.77;7.88;;;;;;;;;;4974628;23;20063;-87
2023/08/19 13:37:03;;;;;;;9.38;6.55;;;;;;;;;;4933135;29;20057;-88
2023/08/19 13:43:12;;;;;;;9.20;6.85;;;;;;;;;;4962961;29;20427;-89
2023/08/19 13:49:07;;;;;;;12.00;7.05;;;;;;;;;;4963821;29;20130;-88
2023/08/19 13:51:50;;;;;;;11.18;6.97;;;;;;;;;;4961300;29;20516;-91
2023/08/19 13:54:29;;;;;;;11.45;6.63;;;;;;;;;;4963395;28;20047;-91
2023/08/19 13:57:08;;;;;;;8.77;6.03;;;;;;;;;;4964613;28;20066;-89
2023/08/19 14:03:00;;;;;;;9.60;6.20;;;;;;;;;;4969556;29;20601;-90
2023/08/19 14:09:03;;;;;;;12.05;6.45;;;;;;;;;;4968747;29;20042;-88
2023/08/19 14:11:37;;;;;;;7.90;6.07;;;;;;;;;;4966308;29;20071;-88
2023/08/19 14:14:18;;;;;;;11.20;6.45;;;;;;;;;;4964724;29;20035;-88
2023/08/19 14:26:57;;;;;;;13.73;6.28;;;;;;;;;;4967210;29;20065;-89
2023/08/19 14:29:41;;;;;;;8.25;5.57;;;;;;;;;;4936702;29;20351;-89
2023/08/19 14:32:22;;;;;;;9.23;5.95;;;;;;;;;;4971042;28;20395;-88
2023/08/19 14:35:02;;;;;;;;;;;;;;;;;;;;;
2023/08/19 14:41:24;;;;;;;9.35;6.00;;;;;;;;;;4970199;29;20115;-89
2023/08/19 14:44:07;;;;;;;9.05;5.53;;;;;;;;;;4970688;28;20071;-89
2023/08/19 14:47:26;;;;;;;7.32;4.97;;;;;;;;;;4948983;29;20399;-89
2023/08/19 14:50:16;;;;;;;8.73;5.43;;;;;;;;;;4877055;29;20055;-88
2023/08/19 14:53:03;;;;;;;12.13;5.35;;;;;;;;;;4942654;29;20047;-88
2023/08/19 14:55:34;;;;;;;11.23;5.60;;;;;;;;;;4945649;29;20306;-89
2023/08/19 14:58:50;;;;;;;7.38;4.68;;;;;;;;;;4883969;29;20052;-88
2023/08/19 15:01:47;;;;;;;8.57;4.75;;;;;;;;;;4883341;29;20566;-89
2023/08/19 15:04:36;;;;;;;9.82;4.85;;;;;;;;;;4868797;29;20045;-89
2023/08/19 15:07:13;;;;;;;9.00;4.93;;;;;;;;;;4870355;29;20053;-89
2023/08/19 15:10:12;;;;;;;8.10;4.75;;;;;;;;;;4867953;29;20045;-88
2023/08/19 15:13:06;;;;;;;;;;;;;;;;;;;;;
2023/08/19 15:26:02;;;;;;;7.38;5.18;;;;;;;;;;4884129;29;20056;-89
2023/08/19 15:32:11;;;;;;;10.20;5.47;;;;;;;;;;4883982;29;20055;-89
2023/08/19 15:45:58;;;;;;;8.73;5.93;;;;;;;;;;4961240;29;20154;-87
2023/08/19 15:48:34;;;;;;;7.22;5.78;;;;;;;;;;4960268;29;20058;-89
2023/08/19 15:51:20;;;;;;;8.98;5.93;;;;;;;;;;4961449;29;20047;-88
2023/08/19 16:00:57;;;;;;;12.63;6.97;;;;;;;;;;4967643;28;20358;-87
2023/08/19 16:03:39;;;;;;;9.25;7.10;;;;;;;;;;4958532;29;20290;-88
2023/08/19 16:06:21;;;;;;;12.60;7.00;;;;;;;;;;4957677;29;20115;-88
2023/08/19 16:12:30;;;;;;;16.50;8.90;;;;;;;;;;4952741;28;20039;-89
2023/08/19 16:15:14;;;;;;;12.90;8.05;;;;;;;;;;4957743;28;20130;-88
2023/08/19 16:24:48;;;;;;;15.65;9.55;;;;;;;;;;4944132;29;20116;-90
2023/08/19 16:27:15;;;;;;;15.20;9.68;;;;;;;;;;4940995;29;20047;-90
2023/08/19 16:29:51;;;;;;;15.95;9.60;;;;;;;;;;4925714;29;20043;-90
2023/08/19 16:32:19;;;;;;;16.67;9.95;;;;;;;;;;4927120;29;20052;-90
2023/08/19 16:34:57;;;;;;;15.10;9.88;;;;;;;;;;4925449;29;20064;-90
2023/08/19 16:37:25;;;;;;;13.85;10.00;;;;;;;;;;4924639;29;20336;-91
2023/08/19 16:40:19;;;;;;;15.52;10.10;;;;;;;;;;4943592;29;20060;-89
2023/08/19 16:42:56;;;;;;;14.23;10.30;;;;;;;;;;4923247;29;20051;-87
2023/08/19 16:45:47;;;;;;;15.70;11.38;;;;;;;;;;4939252;29;20255;-87
2023/08/19 16:48:18;;;;;;;14.98;10.52;;;;;;;;;;4936369;29;20381;-89
2023/08/19 16:50:48;;;;;;;16.40;9.93;;;;;;;;;;4964824;29;20407;-88
2023/08/19 16:53:32;;;;;;;12.70;10.48;;;;;;;;;;4958826;29;20117;-88
2023/08/19 16:56:04;;;;;;;18.48;12.32;;;;;;;;;;4960635;29;20083;-87
2023/08/19 16:58:49;;;;;;;17.25;11.90;;;;;;;;;;4958087;29;20462;-88
2023/08/19 17:01:27;;;;;;;17.88;12.70;;;;;;;;;;4959964;29;20088;-88
2023/08/19 17:04:08;;;;;;;16.65;10.80;;;;;;;;;;4959561;28;20530;-88
2023/08/19 19:04:09;;;;;;;42.35;22.45;;;;;;;;;;4955089;28;20100;-87
2023/08/19 19:06:56;;;;;;;41.40;23.50;;;;;;;;;;4912722;29;20045;-88
2023/08/19 19:10:23;;;;;;;42.53;24.38;;;;;;;;;;4896634;29;20049;-87
2023/08/19 19:16:32;;;;;;;36.03;21.27;;;;;;;;;;4895827;29;20121;-89
2023/08/19 19:20:04;;;;;;;48.50;25.77;;;;;;;;;;4840728;29;20050;-89
2023/08/19 19:23:20;;;;;;;38.95;23.27;;;;;;;;;;4893569;29;20065;-88
2023/08/19 19:26:40;;;;;;;43.28;25.50;;;;;;;;;;4891000;29;20045;-88
2023/08/19 19:29:33;;;;;;;44.80;26.17;;;;;;;;;;4875519;29;20045;-87
2023/08/19 19:32:42;;;;;;;40.55;25.40;;;;;;;;;;4858857;29;20040;-87
2023/08/19 19:35:40;;;;;;;;;;;;;;;;;;;;;
2023/08/19 19:38:41;;;;;;;40.05;24.70;;;;;;;;;;4833292;29;20062;-87
2023/08/19 19:41:44;;;;;;;41.20;24.48;;;;;;;;;;4837406;29;20050;-88
2023/08/19 19:44:45;;;;;;;40.03;24.73;;;;;;;;;;4853018;29;20030;-88
2023/08/19 19:47:56;;;;;;;41.90;24.35;;;;;;;;;;4873946;29;20110;-88
2023/08/19 19:51:13;;;;;;;51.60;29.10;;;;;;;;;;4875774;29;20048;-87
2023/08/19 19:54:39;;;;;;;41.30;25.10;;;;;;;;;;4860696;29;20109;-88
2023/08/19 19:57:52;;;;;;;;;;;;;;;;;;;;;
2023/08/19 20:00:51;;;;;;;45.28;25.70;;;;;;;;;;4861828;29;20098;-88
2023/08/19 20:04:04;;;;;;;48.13;29.25;;;;;;;;;;4869126;29;20045;-88
2023/08/19 20:10:27;;;;;;;44.05;26.25;;;;;;;;;;5422947;23;20035;-88
2023/08/19 20:27:45;;;;;;;39.42;22.65;;;;;;;;;;6017926;23;21029;-89
2023/08/19 20:33:26;;;;;;;36.65;22.08;;;;;;;;;;5637619;23;20095;-89
2023/08/19 20:35:56;;;;;;;44.53;24.92;;;;;;;;;;4961810;28;20074;-89
2023/08/19 20:39:22;;;;;;;39.75;22.98;;;;;;;;;;4977700;28;20063;-90
2023/08/19 20:42:24;;;;;;;43.65;22.73;;;;;;;;;;4921733;28;20046;-89
2023/08/19 20:45:12;;;;;;;50.70;28.38;;;;;;;;;;4956818;28;20132;-90
2023/08/19 20:47:57;;;;;;;50.80;27.95;;;;;;;;;;4961385;28;20232;-89
2023/08/19 20:50:32;;;;;;;49.50;28.10;;;;;;;;;;4978224;28;20039;-90
2023/08/19 20:56:11;;;;;;;51.07;29.57;;;;;;;;;;5115723;23;20055;-91
2023/08/19 20:58:55;;;;;;;65.45;32.05;;;;;;;;;;5011769;23;20051;-91
2023/08/19 21:01:31;;;;;;;57.00;32.78;;;;;;;;;;4957622;28;20048;-88
2023/08/19 21:04:27;;;;;;;52.33;29.60;;;;;;;;;;4957837;28;20067;-89
2023/08/19 21:07:17;;;;;;;54.22;30.52;;;;;;;;;;4971411;28;20086;-90
2023/08/19 21:13:40;;;;;;;55.55;30.33;;;;;;;;;;4978652;28;20054;-91
2023/08/19 21:16:29;;;;;;;48.65;26.27;;;;;;;;;;4960569;28;20035;-89
2023/08/19 21:19:09;;;;;;;52.58;26.27;;;;;;;;;;4961724;28;20059;-91
2023/08/19 21:22:01;;;;;;;52.45;28.63;;;;;;;;;;4973580;28;20289;-91
2023/08/19 21:24:31;;;;;;;44.95;24.50;;;;;;;;;;4965683;29;20365;-90
2023/08/19 21:27:21;;;;;;;42.55;25.08;;;;;;;;;;4948351;29;20101;-90
2023/08/19 21:29:58;;;;;;;46.45;26.73;;;;;;;;;;4945310;29;20115;-90
2023/08/19 21:32:44;;;;;;;38.85;23.58;;;;;;;;;;4945722;29;20062;-89
2023/08/19 21:35:21;;;;;;;51.42;27.58;;;;;;;;;;4960161;29;20051;-89
2023/08/19 21:37:49;;;;;;;40.03;22.98;;;;;;;;;;4961478;28;20056;-90